createdAt,value
2023-01-25T00:01:50.315Z,98465.83
2023-01-25T00:04:23.539Z,98460.39
2023-01-25T00:06:51.845Z,98462.30
2023-01-25T00:09:22.800Z,98467.11
2023-01-25T00:11:51.353Z,98464.05
2023-01-25T00:14:20.036Z,98464.59
2023-01-25T00:16:48.111Z,98463.05
2023-01-25T00:19:16.503Z,98464.80
2023-01-25T00:21:44.686Z,98466.34
2023-01-25T00:24:14.772Z,98463.96
2023-01-25T00:26:46.049Z,98470.64
2023-01-25T00:29:14.754Z,98473.72
2023-01-25T00:32:01.326Z,98473.40
2023-01-25T00:34:29.628Z,98475.11
2023-01-25T00:37:14.559Z,98473.23
2023-01-25T00:39:42.664Z,98476.84
2023-01-25T00:42:13.295Z,98475.66
2023-01-25T00:44:41.572Z,98473.45
2023-01-25T00:47:13.735Z,98478.09
2023-01-25T00:49:43.265Z,98479.30
2023-01-25T00:52:12.146Z,98474.89
2023-01-25T00:54:40.741Z,98476.29
2023-01-25T00:57:10.046Z,98475.79
2023-01-25T00:59:38.834Z,98474.98
2023-01-25T01:02:06.921Z,98470.73
2023-01-25T01:04:35.181Z,98474.50
2023-01-25T01:07:03.559Z,98472.63
2023-01-25T01:09:32.577Z,98471.43
2023-01-25T01:12:01.064Z,98473.00
2023-01-25T01:14:29.247Z,98471.49
2023-01-25T01:16:58.150Z,98474.74
2023-01-25T01:19:26.434Z,98471.84
2023-01-25T01:21:54.496Z,98472.71
2023-01-25T01:24:23.651Z,98472.03
2023-01-25T01:26:51.875Z,98471.35
2023-01-25T01:29:19.966Z,98470.55
2023-01-25T01:31:52.693Z,98473.45
2023-01-25T01:34:24.702Z,98465.30
2023-01-25T01:36:52.982Z,98465.63
2023-01-25T01:39:21.328Z,98465.80
2023-01-25T01:41:49.546Z,98462.27
2023-01-25T01:44:22.855Z,98464.16
2023-01-25T01:46:59.327Z,98465.70
2023-01-25T01:49:33.318Z,98464.51
2023-01-25T01:52:17.799Z,98463.15
2023-01-25T01:54:50.054Z,98464.02
2023-01-25T01:57:22.262Z,98467.13
2023-01-25T01:59:57.549Z,98464.59
2023-01-25T02:02:27.101Z,98466.84
2023-01-25T02:05:00.664Z,98467.19
2023-01-25T02:07:36.513Z,98460.36
2023-01-25T02:10:06.842Z,98459.36
2023-01-25T02:12:36.872Z,98459.40
2023-01-25T02:15:06.570Z,98459.05
2023-01-25T02:17:37.650Z,98458.41
2023-01-25T02:20:26.475Z,98463.39
2023-01-25T02:23:06.952Z,98459.48
2023-01-25T02:25:36.747Z,98460.34
2023-01-25T02:28:11.984Z,98458.65
2023-01-25T02:30:42.351Z,98461.21
2023-01-25T02:33:10.915Z,98463.27
2023-01-25T02:35:48.494Z,98459.21
2023-01-25T02:38:21.377Z,98461.27
2023-01-25T02:41:00.631Z,98458.89
2023-01-25T02:43:33.298Z,98453.78
2023-01-25T02:46:14.539Z,98451.59
2023-01-25T02:48:45.197Z,98452.13
2023-01-25T02:51:13.678Z,98451.80
2023-01-25T02:53:42.074Z,98451.63
2023-01-25T02:56:10.257Z,98447.20
2023-01-25T02:58:38.336Z,98446.52
2023-01-25T03:01:06.570Z,98447.55
2023-01-25T03:03:34.686Z,98449.48
2023-01-25T03:06:03.175Z,98445.55
2023-01-25T03:08:31.760Z,98445.05
2023-01-25T03:11:01.885Z,98440.29
2023-01-25T03:13:31.708Z,98436.73
2023-01-25T03:16:03.799Z,98438.64
2023-01-25T03:18:32.858Z,98432.52
2023-01-25T03:21:10.935Z,98432.69
2023-01-25T03:23:41.090Z,98435.61
2023-01-25T03:26:15.613Z,98430.70
2023-01-25T03:28:57.617Z,98427.31
2023-01-25T03:31:26.128Z,98421.35
2023-01-25T03:33:54.480Z,98423.06
2023-01-25T03:36:25.552Z,98426.85
2023-01-25T03:38:53.808Z,98431.47
2023-01-25T03:41:21.984Z,98431.66
2023-01-25T03:43:50.063Z,98429.10
2023-01-25T03:46:18.949Z,98426.90
2023-01-25T03:48:47.097Z,98428.30
2023-01-25T03:51:15.113Z,98427.97
2023-01-25T03:53:43.390Z,98424.22
2023-01-25T03:56:20.072Z,98426.62
2023-01-25T03:59:11.059Z,98421.34
2023-01-25T04:01:39.138Z,98426.80
2023-01-25T04:04:07.231Z,98427.88
2023-01-25T04:06:35.486Z,98429.42
2023-01-25T04:09:05.000Z,98427.38
2023-01-25T04:11:38.954Z,98422.27
2023-01-25T04:14:07.502Z,98424.69
2023-01-25T04:16:43.395Z,98421.80
2023-01-25T04:19:29.965Z,98425.05
2023-01-25T04:22:00.078Z,98428.13
2023-01-25T04:24:33.061Z,98433.09
2023-01-25T04:27:01.466Z,98435.82
2023-01-25T04:29:40.600Z,98437.88
2023-01-25T04:32:10.130Z,98435.20
2023-01-25T04:34:38.556Z,98435.05
2023-01-25T04:37:08.177Z,98441.19
2023-01-25T04:39:43.068Z,98438.29
2023-01-25T04:42:11.316Z,98438.80
2023-01-25T04:44:39.566Z,98435.08
2023-01-25T04:47:07.551Z,98435.77
2023-01-25T04:49:35.826Z,98436.95
2023-01-25T04:52:04.729Z,98437.13
2023-01-25T04:54:32.724Z,98437.16
2023-01-25T04:57:00.883Z,98439.04
2023-01-25T04:59:29.161Z,98440.92
2023-01-25T05:01:57.387Z,98443.83
2023-01-25T05:04:25.608Z,98441.48
2023-01-25T05:06:56.043Z,98443.71
2023-01-25T05:09:25.376Z,98445.76
2023-01-25T05:11:53.428Z,98445.59
2023-01-25T05:14:27.028Z,98447.97
2023-01-25T05:16:55.320Z,98450.54
2023-01-25T05:19:23.697Z,98453.28
2023-01-25T05:22:07.698Z,98453.63
2023-01-25T05:24:45.341Z,98452.46
2023-01-25T05:27:20.676Z,98452.48
2023-01-25T05:29:55.895Z,98453.35
2023-01-25T05:32:38.207Z,98453.52
2023-01-25T05:35:07.967Z,98451.69
2023-01-25T05:37:36.573Z,98452.88
2023-01-25T05:40:10.637Z,98452.88
2023-01-25T05:42:40.335Z,98452.71
2023-01-25T05:45:14.558Z,98457.83
2023-01-25T05:47:43.752Z,98456.48
2023-01-25T05:50:12.052Z,98460.23
2023-01-25T05:52:55.682Z,98461.60
2023-01-25T05:55:24.052Z,98467.95
2023-01-25T05:57:57.086Z,98473.91
2023-01-25T06:00:25.265Z,98472.89
2023-01-25T06:02:53.432Z,98470.17
2023-01-25T06:05:25.259Z,98475.29
2023-01-25T06:07:53.418Z,98474.09
2023-01-25T06:10:23.923Z,98472.23
2023-01-25T06:12:59.108Z,98469.49
2023-01-25T06:15:27.390Z,98473.24
2023-01-25T06:17:59.248Z,98474.11
2023-01-25T06:20:48.306Z,98477.51
2023-01-25T06:23:17.524Z,98481.11
2023-01-25T06:25:45.715Z,98479.59
2023-01-25T06:28:13.731Z,98476.37
2023-01-25T06:30:41.875Z,98480.98
2023-01-25T06:33:10.019Z,98481.83
2023-01-25T06:35:40.551Z,98479.77
2023-01-25T06:38:08.629Z,98486.08
2023-01-25T06:40:36.608Z,98484.21
2023-01-25T06:43:12.153Z,98488.98
2023-01-25T06:45:40.316Z,98487.44
2023-01-25T06:48:08.608Z,98482.84
2023-01-25T06:50:36.813Z,98484.19
2023-01-25T06:53:04.732Z,98488.59
2023-01-25T06:55:32.732Z,98486.20
2023-01-25T06:58:01.551Z,98489.27
2023-01-25T07:00:29.595Z,98487.55
2023-01-25T07:02:57.719Z,98488.21
2023-01-25T07:05:25.776Z,98490.57
2023-01-25T07:07:53.826Z,98492.96
2023-01-25T07:10:21.899Z,98494.83
2023-01-25T07:12:50.180Z,98495.15
2023-01-25T07:15:18.269Z,98499.74
2023-01-25T07:17:46.644Z,98497.52
2023-01-25T07:20:14.723Z,98496.30
2023-01-25T07:22:42.801Z,98498.51
2023-01-25T07:25:11.420Z,98491.84
2023-01-25T07:27:39.874Z,98490.09
2023-01-25T07:30:08.870Z,98489.73
2023-01-25T07:32:37.053Z,98484.28
2023-01-25T07:35:05.639Z,98481.02
2023-01-25T07:37:34.636Z,98476.75
2023-01-25T07:40:02.701Z,98476.41
2023-01-25T07:42:30.668Z,98475.88
2023-01-25T07:45:19.228Z,98474.63
2023-01-25T07:47:47.402Z,98474.27
2023-01-25T07:50:16.228Z,98475.96
2023-01-25T07:52:44.267Z,98478.68
2023-01-25T07:55:12.435Z,98481.75
2023-01-25T07:57:40.745Z,98480.33
2023-01-25T08:00:10.611Z,98475.71
2023-01-25T08:02:41.595Z,98476.54
2023-01-25T08:05:11.072Z,98481.96
2023-01-25T08:07:39.378Z,98475.80
2023-01-25T08:10:07.976Z,98469.63
2023-01-25T08:12:36.046Z,98468.23
2023-01-25T08:15:05.043Z,98467.36
2023-01-25T08:17:33.428Z,98463.90
2023-01-25T08:20:01.992Z,98456.20
2023-01-25T08:22:30.290Z,98458.59
2023-01-25T08:25:01.341Z,98459.59
2023-01-25T08:27:29.418Z,98458.20
2023-01-25T08:29:57.389Z,98457.14
2023-01-25T08:32:25.568Z,98460.50
2023-01-25T08:34:53.749Z,98460.66
2023-01-25T08:37:21.820Z,98460.80
2023-01-25T08:39:49.898Z,98463.16
2023-01-25T08:42:18.180Z,98462.63
2023-01-25T08:44:46.257Z,98459.84
2023-01-25T08:47:14.642Z,98454.34
2023-01-25T08:49:42.897Z,98451.75
2023-01-25T08:52:14.987Z,98455.29
2023-01-25T08:54:44.396Z,98451.33
2023-01-25T08:57:12.574Z,98452.13
2023-01-25T08:59:40.759Z,98453.42
2023-01-25T09:02:12.361Z,98454.77
2023-01-25T09:04:40.350Z,98451.45
2023-01-25T09:07:08.463Z,98452.40
2023-01-25T09:09:36.585Z,98450.48
2023-01-25T09:12:05.972Z,98444.29
2023-01-25T09:14:34.116Z,98442.03
2023-01-25T09:17:02.052Z,98439.07
2023-01-25T09:19:30.283Z,98440.24
2023-01-25T09:21:58.256Z,98431.17
2023-01-25T09:24:26.367Z,98431.13
2023-01-25T09:26:59.783Z,98427.35
2023-01-25T09:29:28.535Z,98422.67
2023-01-25T09:31:56.602Z,98420.91
2023-01-25T09:34:33.476Z,98414.35
2023-01-25T09:37:01.981Z,98414.63
2023-01-25T09:39:30.391Z,98410.67
2023-01-25T09:42:54.794Z,98404.50
2023-01-25T09:45:36.410Z,98400.50
2023-01-25T09:48:20.733Z,98396.33
2023-01-25T09:51:02.728Z,98396.98
2023-01-25T09:53:47.602Z,98397.75
2023-01-25T09:56:21.389Z,98392.57
2023-01-25T09:58:54.011Z,98389.77
2023-01-25T10:01:51.501Z,98386.95
2023-01-25T10:04:35.972Z,98379.84
2023-01-25T10:07:20.025Z,98373.29
2023-01-25T10:09:55.251Z,98373.55
2023-01-25T10:12:25.928Z,98367.14
2023-01-25T10:14:54.610Z,98366.02
2023-01-25T10:17:40.675Z,98357.08
2023-01-25T10:20:17.791Z,98352.03
2023-01-25T10:23:24.602Z,98349.23
2023-01-25T10:26:05.054Z,98343.66
2023-01-25T10:28:42.332Z,98337.44
2023-01-25T10:31:18.784Z,98332.89
2023-01-25T10:33:48.940Z,98329.06
2023-01-25T10:36:24.336Z,98325.39
2023-01-25T10:38:59.334Z,98321.36
2023-01-25T10:41:39.173Z,98318.41
2023-01-25T10:44:21.890Z,98313.36
2023-01-25T10:47:07.488Z,98310.05
2023-01-25T10:49:47.223Z,98302.96
2023-01-25T10:52:22.235Z,98300.47
2023-01-25T10:55:12.693Z,98293.25
2023-01-25T10:57:58.821Z,98292.46
2023-01-25T11:00:41.095Z,98291.18
2023-01-25T11:03:22.267Z,98290.27
2023-01-25T11:05:55.799Z,98290.20
2023-01-25T11:08:30.862Z,98281.58
2023-01-25T11:10:59.696Z,98280.66
2023-01-25T11:13:32.588Z,98274.48
2023-01-25T11:16:07.071Z,98273.07
2023-01-25T11:18:35.484Z,98271.27
2023-01-25T11:21:22.298Z,98265.04
2023-01-25T11:24:09.525Z,98256.42
2023-01-25T11:26:40.053Z,98251.06
2023-01-25T11:29:18.575Z,98246.86
2023-01-25T11:31:59.193Z,98240.48
2023-01-25T11:34:29.731Z,98237.86
2023-01-25T11:37:11.852Z,98235.90
2023-01-25T11:39:49.251Z,98230.20
2023-01-25T11:42:38.847Z,98231.48
2023-01-25T11:45:06.986Z,98229.57
2023-01-25T11:48:03.805Z,98222.83
2023-01-25T11:51:10.586Z,98220.56
2023-01-25T11:54:02.904Z,98219.33
2023-01-25T11:56:33.947Z,98219.42
2023-01-25T11:59:08.774Z,98215.98
2023-01-25T12:01:53.732Z,98213.02
2023-01-25T12:04:37.162Z,98213.02
2023-01-25T12:07:16.906Z,98212.62
2023-01-25T12:10:01.254Z,98208.30
2023-01-25T12:12:42.113Z,98207.40
2023-01-25T12:15:35.072Z,98202.09
2023-01-25T12:18:15.319Z,98200.52
2023-01-25T12:21:30.578Z,98199.93
2023-01-25T12:24:02.041Z,98199.37
2023-01-25T12:27:18.691Z,98195.20
2023-01-25T12:30:21.885Z,98198.22
2023-01-25T12:33:08.809Z,98190.82
2023-01-25T12:36:17.998Z,98187.02
2023-01-25T12:39:03.371Z,98182.00
2023-01-25T12:41:38.619Z,98180.23
2023-01-25T12:44:14.364Z,98180.05
2023-01-25T12:46:58.042Z,98179.33
2023-01-25T12:49:41.517Z,98177.42
2023-01-25T12:52:32.116Z,98176.90
2023-01-25T12:55:03.016Z,98177.58
2023-01-25T12:57:42.290Z,98176.55
2023-01-25T13:00:40.280Z,98169.53
2023-01-25T13:03:16.819Z,98165.38
2023-01-25T13:05:50.827Z,98163.83
2023-01-25T13:08:35.393Z,98163.44
2023-01-25T13:11:42.036Z,98162.75
2023-01-25T13:14:16.155Z,98164.06
2023-01-25T13:16:51.861Z,98160.78
2023-01-25T13:19:31.438Z,98157.33
2023-01-25T13:22:00.789Z,98157.92
2023-01-25T13:24:33.608Z,98150.03
2023-01-25T13:27:24.826Z,98149.66
2023-01-25T13:30:22.869Z,98149.78
2023-01-25T13:32:51.066Z,98147.50
2023-01-25T13:35:45.449Z,98140.98
2023-01-25T13:38:31.422Z,98138.22
2023-01-25T13:41:12.454Z,98140.76
2023-01-25T13:43:43.557Z,98138.87
2023-01-25T13:46:16.051Z,98137.66
2023-01-25T13:48:54.121Z,98138.67
2023-01-25T13:51:23.128Z,98134.91
2023-01-25T13:53:59.570Z,98128.59
2023-01-25T13:56:33.709Z,98132.16
2023-01-25T13:59:02.918Z,98129.94
2023-01-25T14:01:34.255Z,98128.73
2023-01-25T14:04:05.215Z,98127.02
2023-01-25T14:06:38.051Z,98126.87
2023-01-25T14:09:17.296Z,98126.86
2023-01-25T14:11:58.089Z,98132.33
2023-01-25T14:14:39.182Z,98136.58
2023-01-25T14:17:21.353Z,98134.54
2023-01-25T14:19:53.426Z,98139.54
2023-01-25T14:22:25.809Z,98140.05
2023-01-25T14:25:17.126Z,98137.64
2023-01-25T14:27:53.197Z,98139.01
2023-01-25T14:30:24.848Z,98138.86
2023-01-25T14:32:55.831Z,98142.29
2023-01-25T14:35:42.602Z,98134.77
2023-01-25T14:38:38.317Z,98143.65
2023-01-25T14:41:21.594Z,98138.37
2023-01-25T14:43:53.585Z,98131.83
2023-01-25T14:46:29.738Z,98130.29
2023-01-25T14:49:26.966Z,98128.41
2023-01-25T14:52:10.299Z,98128.58
2023-01-25T14:54:45.567Z,98128.23
2023-01-25T14:57:41.132Z,98128.75
2023-01-25T15:00:19.753Z,98129.78
2023-01-25T15:02:55.280Z,98129.63
2023-01-25T15:05:31.939Z,98125.70
2023-01-25T15:08:08.963Z,98124.30
2023-01-25T15:10:49.518Z,98124.13
2023-01-25T15:13:24.645Z,98128.23
2023-01-25T15:15:58.016Z,98124.81
2023-01-25T15:18:48.433Z,98127.70
2023-01-25T15:21:27.870Z,98124.96
2023-01-25T15:23:58.876Z,98131.13
2023-01-25T15:26:29.240Z,98129.79
2023-01-25T15:28:59.791Z,98126.70
2023-01-25T15:31:31.409Z,98127.71
2023-01-25T15:34:01.733Z,98126.52
2023-01-25T15:36:31.451Z,98127.58
2023-01-25T15:38:59.966Z,98126.41
2023-01-25T15:41:28.144Z,98126.08
2023-01-25T15:43:56.305Z,98131.39
2023-01-25T15:46:27.887Z,98131.27
2023-01-25T15:48:56.242Z,98130.62
2023-01-25T15:51:24.226Z,98132.53
2023-01-25T15:53:52.821Z,98131.88
2023-01-25T15:56:24.804Z,98128.46
2023-01-25T15:58:55.039Z,98133.61
2023-01-25T16:01:27.197Z,98133.85
2023-01-25T16:03:56.767Z,98138.17
2023-01-25T16:06:40.724Z,98136.98
2023-01-25T16:09:25.392Z,98136.43
2023-01-25T16:11:58.413Z,98127.72
2023-01-25T16:14:31.957Z,98127.90
2023-01-25T16:17:03.094Z,98129.46
2023-01-25T16:19:31.904Z,98131.52
2023-01-25T16:22:00.222Z,98129.45
2023-01-25T16:24:28.294Z,98128.42
2023-01-25T16:26:59.315Z,98129.77
2023-01-25T16:29:29.050Z,98125.84
2023-01-25T16:31:57.466Z,98125.16
2023-01-25T16:34:25.780Z,98121.56
2023-01-25T16:36:54.297Z,98111.64
2023-01-25T16:39:24.491Z,98110.95
2023-01-25T16:41:53.005Z,98107.52
2023-01-25T16:44:21.267Z,98105.65
2023-01-25T16:46:50.529Z,98105.31
2023-01-25T16:49:26.565Z,98102.95
2023-01-25T16:51:55.439Z,98099.36
2023-01-25T16:54:24.304Z,98099.38
2023-01-25T16:56:54.022Z,98098.02
2023-01-25T16:59:23.915Z,98099.40
2023-01-25T17:01:52.566Z,98099.59
2023-01-25T17:04:20.810Z,98096.86
2023-01-25T17:06:50.770Z,98094.33
2023-01-25T17:09:25.493Z,98093.65
2023-01-25T17:11:55.433Z,98091.08
2023-01-25T17:14:23.717Z,98091.44
2023-01-25T17:16:55.656Z,98087.70
2023-01-25T17:19:24.217Z,98090.81
2023-01-25T17:21:52.285Z,98087.25
2023-01-25T17:24:21.854Z,98092.20
2023-01-25T17:26:51.218Z,98088.63
2023-01-25T17:29:19.406Z,98086.78
2023-01-25T17:31:48.531Z,98084.63
2023-01-25T17:34:18.751Z,98084.67
2023-01-25T17:36:46.876Z,98082.48
2023-01-25T17:39:16.941Z,98078.55
2023-01-25T17:41:47.910Z,98074.41
2023-01-25T17:44:24.634Z,98072.54
2023-01-25T17:46:53.120Z,98064.33
2023-01-25T17:49:22.697Z,98067.58
2023-01-25T17:51:51.223Z,98068.60
2023-01-25T17:54:19.924Z,98063.47
2023-01-25T17:56:48.075Z,98064.39
2023-01-25T17:59:16.161Z,98061.88
2023-01-25T18:01:44.204Z,98060.52
2023-01-25T18:04:13.496Z,98058.12
2023-01-25T18:06:41.813Z,98055.02
2023-01-25T18:09:09.899Z,98053.98
2023-01-25T18:11:41.044Z,98053.29
2023-01-25T18:14:12.877Z,98048.69
2023-01-25T18:16:41.589Z,98051.41
2023-01-25T18:19:10.584Z,98051.11
2023-01-25T18:21:39.684Z,98052.37
2023-01-25T18:24:29.968Z,98049.98
2023-01-25T18:27:08.060Z,98048.79
2023-01-25T18:29:46.080Z,98047.27
2023-01-25T18:32:15.785Z,98049.54
2023-01-25T18:34:43.879Z,98045.10
2023-01-25T18:37:18.204Z,98048.36
2023-01-25T18:39:54.395Z,98042.39
2023-01-25T18:42:25.152Z,98042.91
2023-01-25T18:44:53.373Z,98041.54
2023-01-25T18:47:23.281Z,98043.09
2023-01-25T18:49:53.012Z,98038.83
2023-01-25T18:52:22.817Z,98043.13
2023-01-25T18:54:51.910Z,98040.25
2023-01-25T18:57:20.718Z,98038.51
2023-01-25T18:59:49.155Z,98032.34
2023-01-25T19:02:18.117Z,98024.63
2023-01-25T19:04:46.416Z,98021.23
2023-01-25T19:07:14.958Z,98019.00
2023-01-25T19:09:44.077Z,98018.00
2023-01-25T19:12:12.134Z,98017.48
2023-01-25T19:14:40.326Z,98012.72
2023-01-25T19:17:09.003Z,98014.30
2023-01-25T19:19:37.480Z,98005.95
2023-01-25T19:22:05.672Z,98004.98
2023-01-25T19:24:33.842Z,98000.55
2023-01-25T19:27:02.331Z,97997.64
2023-01-25T19:29:30.412Z,97992.84
2023-01-25T19:31:58.603Z,97995.91
2023-01-25T19:34:27.068Z,97993.54
2023-01-25T19:36:55.910Z,97996.11
2023-01-25T19:39:24.149Z,97992.70
2023-01-25T19:41:53.489Z,97989.27
2023-01-25T19:44:22.038Z,97988.08
2023-01-25T19:46:50.321Z,97984.16
2023-01-25T19:49:18.491Z,97984.54
2023-01-25T19:51:53.156Z,97982.00
2023-01-25T19:54:23.146Z,97978.95
2023-01-25T19:56:51.750Z,97974.33
2023-01-25T19:59:22.284Z,97974.86
2023-01-25T20:01:50.667Z,97977.23
2023-01-25T20:04:21.524Z,97973.48
2023-01-25T20:06:50.840Z,97969.92
2023-01-25T20:09:27.797Z,97972.48
2023-01-25T20:11:57.414Z,97967.37
2023-01-25T20:14:25.452Z,97968.06
2023-01-25T20:16:53.839Z,97966.88
2023-01-25T20:19:21.841Z,97959.88
2023-01-25T20:21:49.887Z,97953.08
2023-01-25T20:24:18.206Z,97952.23
2023-01-25T20:26:46.290Z,97956.88
2023-01-25T20:29:14.939Z,97953.82
2023-01-25T20:31:45.393Z,97947.69
2023-01-25T20:34:16.790Z,97946.48
2023-01-25T20:36:45.833Z,97948.75
2023-01-25T20:39:19.247Z,97947.09
2023-01-25T20:41:47.959Z,97943.84
2023-01-25T20:44:18.043Z,97942.83
2023-01-25T20:46:46.468Z,97943.16
2023-01-25T20:49:16.858Z,97939.39
2023-01-25T20:51:46.370Z,97936.34
2023-01-25T20:54:15.244Z,97930.53
2023-01-25T20:56:47.982Z,97930.52
2023-01-25T20:59:17.821Z,97929.18
2023-01-25T21:01:46.893Z,97925.60
2023-01-25T21:04:15.127Z,97920.32
2023-01-25T21:06:43.527Z,97919.84
2023-01-25T21:09:12.651Z,97920.56
2023-01-25T21:11:41.508Z,97921.80
2023-01-25T21:14:09.538Z,97922.34
2023-01-25T21:16:37.851Z,97925.95
2023-01-25T21:19:07.166Z,97922.39
2023-01-25T21:21:35.970Z,97920.56
2023-01-25T21:24:05.940Z,97918.88
2023-01-25T21:26:35.793Z,97917.21
2023-01-25T21:29:05.921Z,97914.16
2023-01-25T21:31:36.689Z,97912.80
2023-01-25T21:34:06.557Z,97917.60
2023-01-25T21:36:34.774Z,97912.48
2023-01-25T21:39:03.554Z,97911.55
2023-01-25T21:41:33.809Z,97912.42
2023-01-25T21:44:21.340Z,97905.77
2023-01-25T21:47:16.254Z,97904.73
2023-01-25T21:49:56.633Z,97901.83
2023-01-25T21:52:24.820Z,97903.72
2023-01-25T21:54:52.894Z,97899.45
2023-01-25T21:57:20.936Z,97897.42
2023-01-25T21:59:49.357Z,97896.37
2023-01-25T22:02:17.489Z,97895.17
2023-01-25T22:04:45.813Z,97897.19
2023-01-25T22:07:14.194Z,97897.69
2023-01-25T22:09:42.462Z,97897.64
2023-01-25T22:12:12.424Z,97895.20
2023-01-25T22:14:40.781Z,97887.64
2023-01-25T22:17:09.161Z,97884.19
2023-01-25T22:19:37.442Z,97874.41
2023-01-25T22:22:05.408Z,97871.51
2023-01-25T22:24:33.594Z,97869.80
2023-01-25T22:27:36.870Z,97867.08
2023-01-25T22:30:06.440Z,97870.33
2023-01-25T22:32:34.577Z,97866.57
2023-01-25T22:35:02.947Z,97861.47
2023-01-25T22:37:31.008Z,97858.77
2023-01-25T22:39:59.206Z,97862.36
2023-01-25T22:42:27.375Z,97858.29
2023-01-25T22:44:55.478Z,97860.56
2023-01-25T22:47:23.531Z,97860.77
2023-01-25T22:49:51.766Z,97862.71
2023-01-25T22:52:19.893Z,97857.09
2023-01-25T22:54:50.251Z,97857.24
2023-01-25T22:57:18.345Z,97852.11
2023-01-25T22:59:46.575Z,97848.05
2023-01-25T23:02:14.859Z,97841.39
2023-01-25T23:04:43.181Z,97840.73
2023-01-25T23:07:19.044Z,97838.84
2023-01-25T23:09:51.757Z,97833.88
2023-01-25T23:12:20.668Z,97831.68
2023-01-25T23:14:51.973Z,97829.98
2023-01-25T23:17:48.268Z,97824.52
2023-01-25T23:20:16.719Z,97820.58
2023-01-25T23:22:45.076Z,97816.84
2023-01-25T23:25:13.487Z,97815.12
2023-01-25T23:27:41.684Z,97818.52
2023-01-25T23:30:11.158Z,97818.03
2023-01-25T23:32:40.251Z,97817.89
2023-01-25T23:35:08.448Z,97819.73
2023-01-25T23:37:36.536Z,97818.02
2023-01-25T23:40:09.177Z,97813.21
2023-01-25T23:42:38.481Z,97811.32
2023-01-25T23:45:08.319Z,97808.61
2023-01-25T23:47:36.509Z,97812.41
2023-01-25T23:50:05.619Z,97806.98
2023-01-25T23:52:35.181Z,97804.94
2023-01-25T23:55:03.506Z,97798.41
2023-01-25T23:57:31.787Z,97794.29
2023-01-25T23:59:59.860Z,97790.00
